METAR

METAR LDZA 250930Z 04007KT 310V110 9999 FEW030 19/13 Q1019 TEMPO -SHRA FEW030TCU =
METAR LDSP 250930Z 05010KT 030V090 CAVOK 25/07 Q1014 NOSIG=
METAR LDDU 250930Z 23008KT 190V260 9999 FEW049 23/10 Q1013 NOSIG =
METAR LDZD 250930Z 04011KT 330V080 CAVOK 23/08 Q1015 NOSIG =
METAR LDPL 250930Z 02011KT 9999 FEW035 20/11 Q1017 NOSIG=
METAR LDOS 250930Z 03006KT 360V070 9999 FEW037 21/10 Q1018=
METAR LDRI 250930Z 04008KT 340V090 9999 FEW036 SCT056 21/09 Q1017=

TAF

TAF LDZA 250525Z 2506/2606 03008KT 9999 BKN030
                 TX20/2514Z TN12/2603Z
           TEMPO 2506/2516 SHRA SCT025TCU BKN030=
TAF AMD LDSP 250939Z 2509/2606 04009KT 9999 FEW050
                     TX26/2513Z TN20/2603Z
               BECMG 2510/2512 23008KT
               TEMPO 2512/2514 23010KT
               BECMG 2516/2518 04012KT
        PROB40 TEMPO 2518/2606 04015G25KT=
TAF LDDU 250525Z 2506/2606 02010KT 9999 FEW040
                 TX25/2513Z TN18/2604Z
           BECMG 2506/2508 24007KT
           BECMG 2509/2511 29010KT
           BECMG 2518/2520 12008KT
    PROB30 TEMPO 2519/2522 12012KT -TSRA FEW027CB BKN030
           BECMG 2600/2602 02018KT
           TEMPO 2602/2606 02018G28KT=
TAF AMD LDZD 250808Z 2508/2606 06014KT 9999 FEW050
                     TX27/2514Z TN17/2603Z
               TEMPO 2508/2514 07009KT
        PROB40 TEMPO 2508/2606 06015G25KT=
TAF LDPL 250525Z 2506/2606 06007KT 9999 SCT035
                 TX21/2515Z TN14/2603Z
           BECMG 2507/2509 06012KT
    PROB40 TEMPO 2507/2512 SHRA SCT025TCU BKN030=
TAF LDOS 250525Z 2506/2606 02006KT 9999 SCT035
                 TX21/2514Z TN11/2603Z
    PROB40 TEMPO 2512/2518 SHRA SCT030TCU BKN035=
TAF LDRI 250525Z 2506/2606 VRB02KT 9999 SCT035
                 TX22/2514Z TN16/2603Z
    PROB40 TEMPO 2506/2514 SHRA SCT030TCU BKN035
           BECMG 2517/2519 06010KT
    PROB30 TEMPO 2600/2606 06015G25KT=
TAF AMD LDLO 241900Z 2419/2512 CNL=

SIGMET

AIRMET

LDZO AIRMET 3 VALID 250800/251200 LDZA-
LDZO ZAGREB FIR MOD ICE FCST NW OF LINE N4600 E01720 - N4430 E01330
ABV FL085 MOV SE 5KT NC=
LDZO AIRMET 4 VALID 250830/251200 LDZA-
LDZO ZAGREB FIR MT OBSC OBS WI N4642 E01647 - N4623 E01710 - N4454
E01459 - N4525 E01337 - N4642 E01647 ABV 2000FT STNR NC=
LDZO AIRMET 5 VALID 250910/251200 LDZA-
LDZO ZAGREB FIR ISOL TCU FCST WI N4349 E01412 - N4442 E01314 - N4522
E01259 - N4634 E01624 - N4554 E01854 - N4349 E01412 TOP ABV FL100
STNR NC=
LDZO AIRMET 6 VALID 250930/251100 LDZA-
LDZO ZAGREB FIR ISOL TS OBS WI N4440 E01312 - N4439 E01402 - N4332
E01446 - N4332 E01428 - N4440 E01312 TOP ABV FL100 MOV SE 10KT NC=

Remark

Ukoliko se brzina i smjer vjetra ne mogu odrediti zbog privremenog kvara sustava/indikatora,
informacija o vjetru u METAR izvješću bit će prikazana kao "/////KT".

 

Disclaimer

 

In case of temporary system/sensor failure, wind speed and direction data will be represented as "/////KT" in METAR report.

 

         

      Politika MET podataka